Patsville, Arkansas
Current Conditions -  °F | °C
As of 2:38 PM on Monday 22 Dec 2014 (Local Time) from KLLQ Reporting Station
Overcast Overcast  
Wind Chill: 58°   Ceiling: 700
Heat Index: 58°   Visibility: 9mi
Dew Point: 55°   Wind: 9mph
Humidity: 90%   Direction: 190°S
Pressure: 29.6"   Gusts: NA
Location:  33.37°N, 92.1129°W
Report Text: KLLQ 222038Z AUTO 19008KT 9SM OVC007 14/13 A2960 RMK AO2 T01440128
Loading
Personal Weather Stations






























Interactive Weather Map New forecast layout! Learn more

10-Day Weather Forecast

Advertisements
Track Severe Weather on mobile